Time;durP1;ratioP1;P1;durP2;ratioP2;P2;SDS_P1;SDS_P2;PMS_P1;PMS_P2;Temp;Humidity;BMP_temperature;BMP_pressure;BME280_temperature;BME280_humidity;BME280_pressure;Samples;Min_cycle;Max_cycle;Signal;HPM_P1;HPM_P2
2023/05/14 00:01:50;;;;;;;6.57;5.88;;;16.20;65.30;;;;;;5068799;28;20074;-70
2023/05/14 00:04:18;;;;;;;7.50;6.53;;;16.20;65.40;;;;;;5070546;28;20029;-71
2023/05/14 00:06:44;;;;;;;9.13;7.35;;;16.10;65.70;;;;;;5071318;28;20103;-69
2023/05/14 00:09:10;;;;;;;7.95;6.70;;;16.00;66.10;;;;;;5072075;28;20672;-68
2023/05/14 00:11:36;;;;;;;8.80;7.18;;;15.90;66.50;;;;;;5080639;28;20032;-68
2023/05/14 00:14:02;;;;;;;8.38;7.38;;;15.90;66.70;;;;;;5072068;28;20086;-69
2023/05/14 00:16:27;;;;;;;7.55;6.80;;;15.80;66.70;;;;;;5088353;28;20024;-68
2023/05/14 00:18:53;;;;;;;8.75;6.90;;;15.80;66.90;;;;;;5072198;28;20035;-71
2023/05/14 00:21:18;;;;;;;8.43;7.20;;;15.70;67.10;;;;;;5074710;28;20032;-68
2023/05/14 00:23:44;;;;;;;7.47;6.30;;;15.60;67.40;;;;;;5080844;28;20070;-68
2023/05/14 00:26:10;;;;;;;7.95;6.82;;;15.60;67.50;;;;;;5071642;28;20054;-69
2023/05/14 00:28:35;;;;;;;8.00;6.80;;;15.60;67.50;;;;;;5072417;28;20040;-71
2023/05/14 00:31:01;;;;;;;9.25;6.63;;;15.50;67.60;;;;;;5072307;28;20028;-68
2023/05/14 00:33:26;;;;;;;9.27;6.82;;;15.50;67.70;;;;;;5072673;28;20036;-68
2023/05/14 00:35:52;;;;;;;10.07;6.90;;;15.50;67.90;;;;;;5076654;28;20027;-68
2023/05/14 00:38:18;;;;;;;10.30;7.47;;;15.40;68.10;;;;;;5087802;28;20024;-68
2023/05/14 00:40:49;;;;;;;9.35;7.40;;;15.40;68.30;;;;;;5073429;28;20035;-67
2023/05/14 00:43:18;;;;;;;9.23;7.28;;;15.40;68.40;;;;;;5071941;28;20420;-68
2023/05/14 00:45:44;;;;;;;9.93;8.07;;;15.30;68.60;;;;;;5072351;28;20020;-67
2023/05/14 00:48:10;;;;;;;8.55;6.97;;;15.30;68.80;;;;;;5077464;28;20096;-68
2023/05/14 00:50:35;;;;;;;9.07;7.45;;;15.30;68.80;;;;;;5072029;28;20108;-68
2023/05/14 00:53:01;;;;;;;8.57;7.45;;;15.30;68.90;;;;;;5079797;28;20024;-68
2023/05/14 00:55:29;;;;;;;8.38;6.68;;;15.30;68.90;;;;;;5073736;28;20032;-69
2023/05/14 00:57:57;;;;;;;10.27;7.68;;;15.30;69.00;;;;;;5072304;28;20060;-72
2023/05/14 01:00:23;;;;;;;8.02;7.03;;;15.20;69.30;;;;;;5064088;28;20024;-72
2023/05/14 01:02:48;;;;;;;10.15;7.95;;;15.20;69.30;;;;;;5072375;28;20024;-68
2023/05/14 01:05:14;;;;;;;9.65;7.50;;;15.20;69.40;;;;;;5073058;28;20047;-68
2023/05/14 01:08:23;;;;;;;10.90;6.78;;;15.20;69.40;;;;;;5072440;28;20382;-68
2023/05/14 01:10:55;;;;;;;9.65;7.47;;;15.20;69.40;;;;;;5068266;28;20036;-69
2023/05/14 01:13:42;;;;;;;8.30;7.50;;;15.20;69.40;;;;;;5072173;28;20025;-68
2023/05/14 01:16:12;;;;;;;7.88;6.93;;;15.20;69.40;;;;;;5065242;28;20070;-70
2023/05/14 01:18:40;;;;;;;9.60;7.90;;;15.20;69.60;;;;;;5070948;28;20066;-68
2023/05/14 01:21:39;;;;;;;8.90;7.60;;;15.20;69.80;;;;;;5071617;28;20028;-69
2023/05/14 01:24:06;;;;;;;7.90;7.10;;;15.10;69.90;;;;;;5074730;28;20478;-68
2023/05/14 01:26:32;;;;;;;8.65;7.50;;;15.10;70.20;;;;;;5081910;28;20036;-70
2023/05/14 01:29:07;;;;;;;9.98;7.70;;;15.00;70.20;;;;;;5075518;28;20028;-71
2023/05/14 01:31:37;;;;;;;9.80;7.82;;;15.00;70.70;;;;;;5070630;28;20121;-70
2023/05/14 01:34:04;;;;;;;8.27;7.05;;;14.90;71.00;;;;;;5071235;28;20066;-69
2023/05/14 01:36:31;;;;;;;9.40;7.55;;;14.90;71.00;;;;;;5070683;28;20550;-70
2023/05/14 01:38:59;;;;;;;11.38;7.95;;;14.90;71.00;;;;;;5071384;28;20024;-68
2023/05/14 01:41:25;;;;;;;10.77;7.22;;;14.90;71.30;;;;;;5070964;28;20029;-71
2023/05/14 01:43:51;;;;;;;10.52;7.60;;;14.90;71.50;;;;;;5076890;28;20032;-71
2023/05/14 01:46:18;;;;;;;11.73;8.98;;;14.80;71.50;;;;;;5073035;28;20163;-69
2023/05/14 01:48:44;;;;;;;8.73;7.28;;;14.80;71.60;;;;;;5070471;28;20028;-68
2023/05/14 01:51:09;;;;;;;9.40;8.02;;;14.80;71.70;;;;;;5070077;28;20032;-70
2023/05/14 01:53:35;;;;;;;8.93;7.65;;;14.80;71.80;;;;;;5070753;28;20431;-69
2023/05/14 01:56:01;;;;;;;8.55;7.43;;;14.80;71.80;;;;;;5080488;28;20032;-71
2023/05/14 01:58:26;;;;;;;8.82;7.55;;;14.70;72.00;;;;;;5071012;28;20498;-69
2023/05/14 02:00:52;;;;;;;11.00;7.82;;;14.70;72.10;;;;;;5079098;28;20024;-69
2023/05/14 02:03:17;;;;;;;10.98;7.85;;;14.70;72.20;;;;;;5071112;28;20058;-68
2023/05/14 02:05:43;;;;;;;13.18;8.82;;;14.60;72.50;;;;;;5070842;28;20017;-69
2023/05/14 02:08:08;;;;;;;11.35;7.97;;;14.50;73.00;;;;;;5069775;28;20154;-69
2023/05/14 02:10:34;;;;;;;9.55;8.15;;;14.50;73.10;;;;;;5080169;28;20017;-68
2023/05/14 02:13:00;;;;;;;10.95;7.55;;;14.50;73.20;;;;;;5070026;28;20035;-70
2023/05/14 02:15:25;;;;;;;10.38;7.68;;;14.50;73.20;;;;;;5073372;28;20020;-69
2023/05/14 02:17:51;;;;;;;9.65;7.20;;;14.50;73.30;;;;;;5075689;28;20449;-68
2023/05/14 02:20:16;;;;;;;11.07;7.80;;;14.50;73.20;;;;;;5071428;28;20035;-68
2023/05/14 02:22:44;;;;;;;10.07;7.72;;;14.50;73.20;;;;;;5073442;28;20035;-67
2023/05/14 02:25:10;;;;;;;9.50;7.57;;;14.40;73.50;;;;;;5077063;28;20470;-69
2023/05/14 02:27:35;;;;;;;8.63;7.60;;;14.40;73.60;;;;;;5075514;28;20112;-70
2023/05/14 02:30:01;;;;;;;10.88;7.68;;;14.30;73.60;;;;;;5073880;28;20027;-71
2023/05/14 02:32:27;;;;;;;8.75;7.70;;;14.30;73.70;;;;;;5069017;28;20028;-70
2023/05/14 02:34:53;;;;;;;9.02;7.95;;;14.30;73.90;;;;;;5068607;28;20406;-69
2023/05/14 02:37:18;;;;;;;9.90;8.23;;;14.20;74.00;;;;;;5078080;28;20093;-69
2023/05/14 02:39:44;;;;;;;10.00;8.45;;;14.20;74.20;;;;;;5075906;28;20032;-70
2023/05/14 02:42:09;;;;;;;9.93;7.80;;;14.20;74.40;;;;;;5069479;28;20025;-69
2023/05/14 02:44:35;;;;;;;10.77;8.38;;;14.10;74.40;;;;;;5071293;28;20016;-67
2023/05/14 02:47:00;;;;;;;11.27;9.13;;;14.10;74.50;;;;;;5069472;28;20486;-68
2023/05/14 02:49:26;;;;;;;11.15;7.57;;;14.00;74.80;;;;;;5069843;28;20581;-70
2023/05/14 02:51:53;;;;;;;12.85;8.52;;;14.00;74.80;;;;;;5069307;28;20055;-67
2023/05/14 02:54:18;;;;;;;11.23;8.18;;;14.00;75.00;;;;;;5069465;28;20077;-69
2023/05/14 02:56:44;;;;;;;9.82;8.57;;;13.90;75.10;;;;;;5070366;28;20497;-68
2023/05/14 02:59:10;;;;;;;11.70;9.35;;;13.90;75.40;;;;;;5073641;28;20030;-69
2023/05/14 03:01:35;;;;;;;10.52;8.77;;;13.80;75.80;;;;;;5078524;28;20066;-68
2023/05/14 03:04:01;;;;;;;11.80;9.48;;;13.80;76.20;;;;;;5073477;28;20029;-69
2023/05/14 03:06:26;;;;;;;17.08;10.20;;;13.70;76.40;;;;;;5069805;28;20033;-65
2023/05/14 03:08:52;;;;;;;12.98;9.23;;;13.70;76.60;;;;;;5069253;28;20032;-66
2023/05/14 03:11:17;;;;;;;11.65;9.20;;;13.70;76.70;;;;;;5071157;28;20037;-66
2023/05/14 03:13:43;;;;;;;12.48;9.65;;;13.60;76.80;;;;;;5069596;28;20039;-70
2023/05/14 03:16:08;;;;;;;13.43;10.23;;;13.60;77.10;;;;;;5076170;28;20023;-66
2023/05/14 03:18:35;;;;;;;10.75;9.07;;;13.60;77.20;;;;;;5069470;28;20020;-68
2023/05/14 03:21:01;;;;;;;11.73;9.65;;;13.60;77.40;;;;;;5082090;28;20080;-67
2023/05/14 03:23:26;;;;;;;11.20;9.23;;;13.60;77.60;;;;;;5084507;28;20029;-67
2023/05/14 03:25:52;;;;;;;13.68;10.20;;;13.60;77.60;;;;;;5073737;28;20111;-67
2023/05/14 03:28:17;;;;;;;12.07;10.07;;;13.50;77.80;;;;;;5073066;28;20076;-68
2023/05/14 03:30:43;;;;;;;12.15;9.90;;;13.50;77.80;;;;;;5074150;28;20107;-66
2023/05/14 03:33:08;;;;;;;12.13;9.27;;;13.50;78.00;;;;;;5073050;28;20052;-67
2023/05/14 03:35:34;;;;;;;10.45;8.55;;;13.40;78.00;;;;;;5081574;28;20039;-67
2023/05/14 03:38:00;;;;;;;12.20;9.35;;;13.40;78.00;;;;;;5073289;28;20032;-68
2023/05/14 03:40:25;;;;;;;12.25;9.23;;;13.40;78.10;;;;;;5073219;28;20032;-66
2023/05/14 03:42:51;;;;;;;12.27;8.85;;;13.30;78.20;;;;;;5073256;28;20032;-66
2023/05/14 03:45:17;;;;;;;12.60;8.65;;;13.40;78.20;;;;;;5072968;28;20609;-68
2023/05/14 03:47:42;;;;;;;11.82;8.65;;;13.30;78.10;;;;;;5073246;28;20024;-67
2023/05/14 03:50:08;;;;;;;11.25;8.90;;;13.40;78.10;;;;;;5073247;28;20514;-67
2023/05/14 03:52:34;;;;;;;12.57;9.70;;;13.30;78.20;;;;;;5081522;28;20025;-66
2023/05/14 03:54:59;;;;;;;12.18;8.50;;;13.30;78.30;;;;;;5071671;28;20051;-67
2023/05/14 03:57:25;;;;;;;11.93;9.38;;;13.30;78.50;;;;;;5073459;28;20028;-68
2023/05/14 03:59:50;;;;;;;10.80;8.75;;;13.30;78.50;;;;;;5072389;28;20024;-70
2023/05/14 04:02:16;;;;;;;10.30;8.63;;;13.30;78.50;;;;;;5073588;28;20029;-68
2023/05/14 04:04:41;;;;;;;11.45;8.75;;;13.30;78.60;;;;;;5073107;28;20036;-69
2023/05/14 04:07:07;;;;;;;10.77;8.88;;;13.30;78.50;;;;;;5073041;28;20031;-68
2023/05/14 04:09:33;;;;;;;12.60;9.20;;;13.30;78.50;;;;;;5077270;28;20020;-67
2023/05/14 04:11:58;;;;;;;12.10;9.63;;;13.30;78.60;;;;;;5076530;28;20024;-67
2023/05/14 04:14:24;;;;;;;11.25;9.13;;;13.30;78.60;;;;;;5072711;28;20537;-67
2023/05/14 04:16:49;;;;;;;10.40;8.52;;;13.30;78.60;;;;;;5071957;28;20386;-69
2023/05/14 04:19:15;;;;;;;10.60;8.40;;;13.30;78.60;;;;;;5071979;28;20036;-69
2023/05/14 04:21:41;;;;;;;10.15;8.23;;;13.30;78.60;;;;;;5072681;28;20025;-68
2023/05/14 04:24:06;;;;;;;9.48;8.38;;;13.40;78.50;;;;;;5072766;28;20028;-69
2023/05/14 04:26:32;;;;;;;10.70;7.70;;;13.40;78.40;;;;;;5072780;28;20036;-68
2023/05/14 04:29:01;;;;;;;12.25;9.10;;;13.30;78.30;;;;;;5077732;28;20035;-70
2023/05/14 04:31:27;;;;;;;11.85;9.15;;;13.30;78.40;;;;;;5072581;28;20032;-69
2023/05/14 04:33:52;;;;;;;11.50;8.60;;;13.30;78.50;;;;;;5067052;28;20022;-71
2023/05/14 04:36:18;;;;;;;10.00;6.53;;;13.30;78.60;;;;;;5075408;28;20056;-68
2023/05/14 04:38:44;;;;;;;10.20;8.20;;;13.30;78.40;;;;;;5072989;28;20032;-69
2023/05/14 04:41:09;;;;;;;14.43;9.98;;;13.30;78.40;;;;;;5083797;28;20107;-70
2023/05/14 04:43:35;;;;;;;11.02;8.98;;;13.20;78.50;;;;;;5072277;28;20024;-70
2023/05/14 04:46:01;;;;;;;12.27;9.60;;;13.30;78.70;;;;;;5077213;28;20024;-67
2023/05/14 04:48:26;;;;;;;12.57;9.15;;;13.30;78.70;;;;;;5068786;28;20118;-68
2023/05/14 04:50:52;;;;;;;11.68;8.88;;;13.30;78.80;;;;;;5081256;28;20023;-70
2023/05/14 04:53:17;;;;;;;12.40;8.82;;;13.30;78.80;;;;;;5072248;28;20032;-69
2023/05/14 04:55:43;;;;;;;9.65;8.32;;;13.30;78.80;;;;;;5071352;28;20048;-71
2023/05/14 04:58:08;;;;;;;11.07;9.07;;;13.30;78.70;;;;;;5077047;28;20359;-68
2023/05/14 05:00:34;;;;;;;12.02;8.95;;;13.40;79.30;;;;;;5075740;28;20071;-70
2023/05/14 05:02:59;;;;;;;11.32;8.98;;;13.50;78.50;;;;;;5071927;28;20031;-68
2023/05/14 05:05:25;;;;;;;13.82;9.13;;;13.60;78.50;;;;;;5069725;28;20550;-67
2023/05/14 05:07:51;;;;;;;9.52;7.97;;;13.70;78.40;;;;;;5072054;28;20521;-69
2023/05/14 05:10:16;;;;;;;13.23;9.45;;;13.80;78.20;;;;;;5071114;28;20487;-69
2023/05/14 05:12:42;;;;;;;11.45;8.70;;;13.90;77.80;;;;;;5070871;28;20023;-67
2023/05/14 05:15:08;;;;;;;9.18;7.68;;;14.00;77.70;;;;;;5071259;28;20056;-66
2023/05/14 05:17:34;;;;;;;10.80;8.63;;;14.30;77.60;;;;;;5071246;28;20024;-66
2023/05/14 05:19:59;;;;;;;10.48;7.88;;;15.00;76.30;;;;;;5076531;28;20029;-68
2023/05/14 05:22:25;;;;;;;12.90;8.75;;;15.10;74.80;;;;;;5078773;28;20051;-71
2023/05/14 05:24:50;;;;;;;14.63;9.23;;;15.00;74.50;;;;;;5075082;28;20024;-67
2023/05/14 05:27:16;;;;;;;11.07;8.48;;;14.90;74.80;;;;;;5071388;28;20521;-67
2023/05/14 05:29:43;;;;;;;11.65;8.93;;;15.30;75.10;;;;;;5068602;28;20062;-69
2023/05/14 05:32:08;;;;;;;9.23;7.55;;;15.90;74.30;;;;;;5076871;28;20052;-67
2023/05/14 05:34:35;;;;;;;11.13;7.93;;;16.60;71.80;;;;;;5069793;28;20455;-66
2023/05/14 05:37:00;;;;;;;10.00;7.90;;;17.40;69.80;;;;;;5067528;28;20093;-68
2023/05/14 05:39:26;;;;;;;11.30;8.77;;;17.90;67.60;;;;;;5085917;28;20499;-67
2023/05/14 05:41:53;;;;;;;9.00;7.50;;;18.50;65.80;;;;;;5074703;28;20032;-69
2023/05/14 05:44:18;;;;;;;8.27;7.22;;;19.00;64.30;;;;;;5068344;28;20024;-67
2023/05/14 05:46:44;;;;;;;9.82;8.35;;;19.50;62.80;;;;;;5068071;28;20386;-68
2023/05/14 05:49:09;;;;;;;10.65;7.97;;;19.80;61.80;;;;;;5071001;28;20043;-66
2023/05/14 05:51:35;;;;;;;12.02;7.97;;;20.10;60.80;;;;;;5077160;28;20028;-67
2023/05/14 05:54:00;;;;;;;11.02;7.70;;;20.40;60.10;;;;;;5070549;28;20023;-69
2023/05/14 05:56:26;;;;;;;9.65;6.82;;;20.70;59.20;;;;;;5070721;28;20027;-67
2023/05/14 05:58:51;;;;;;;9.85;7.75;;;20.90;58.90;;;;;;5072242;28;20106;-66
2023/05/14 06:01:17;;;;;;;9.75;7.40;;;20.90;58.30;;;;;;5080452;28;20119;-66
2023/05/14 06:03:42;;;;;;;9.57;7.05;;;21.10;57.90;;;;;;5073846;28;20073;-68
2023/05/14 06:06:08;;;;;;;11.95;7.55;;;21.40;57.20;;;;;;5083645;28;20518;-69
2023/05/14 06:08:34;;;;;;;10.70;7.78;;;21.50;56.80;;;;;;5070865;28;20098;-66
2023/05/14 06:10:59;;;;;;;9.43;7.25;;;21.60;56.40;;;;;;5069028;28;20099;-69
2023/05/14 06:13:25;;;;;;;8.65;6.47;;;21.70;56.20;;;;;;5070277;28;20017;-69
2023/05/14 06:15:50;;;;;;;9.05;6.97;;;21.90;55.90;;;;;;5074005;28;20029;-70
2023/05/14 06:18:16;;;;;;;7.75;6.05;;;22.10;55.50;;;;;;5076418;28;20024;-67
2023/05/14 06:20:42;;;;;;;8.18;6.30;;;22.40;55.10;;;;;;5069483;28;20025;-68
2023/05/14 06:23:07;;;;;;;9.13;6.55;;;22.70;54.70;;;;;;5072602;28;20078;-69
2023/05/14 06:25:33;;;;;;;9.27;6.93;;;22.80;54.30;;;;;;5068545;28;20491;-71
2023/05/14 06:27:59;;;;;;;8.43;7.03;;;22.80;54.20;;;;;;5070815;28;20115;-71
2023/05/14 06:30:24;;;;;;;8.85;6.40;;;22.60;54.40;;;;;;5070745;28;20111;-68
2023/05/14 06:32:50;;;;;;;8.23;7.22;;;22.50;55.00;;;;;;5072769;28;20122;-70
2023/05/14 06:35:18;;;;;;;9.95;7.30;;;22.00;55.70;;;;;;5068280;28;20135;-68
2023/05/14 06:37:44;;;;;;;8.32;6.35;;;21.60;56.90;;;;;;5069346;28;20391;-69
2023/05/14 06:40:11;;;;;;;9.05;7.45;;;21.40;57.70;;;;;;5069650;28;20048;-70
2023/05/14 06:42:36;;;;;;;9.25;6.93;;;21.20;58.00;;;;;;5076591;28;20674;-67
2023/05/14 06:45:02;;;;;;;7.93;6.45;;;21.00;58.40;;;;;;5073871;28;20062;-67
2023/05/14 06:47:27;;;;;;;9.85;6.28;;;20.90;58.90;;;;;;5078391;28;20433;-70
2023/05/14 06:49:54;;;;;;;8.38;6.50;;;20.70;59.30;;;;;;5070138;28;20108;-67
2023/05/14 06:52:20;;;;;;;8.50;6.43;;;20.60;59.70;;;;;;5073247;28;20440;-69
2023/05/14 06:54:45;;;;;;;8.32;5.75;;;20.60;59.90;;;;;;5076942;28;20008;-68
2023/05/14 06:57:11;;;;;;;8.60;6.30;;;20.60;60.00;;;;;;5086763;28;20017;-68
2023/05/14 06:59:36;;;;;;;8.80;6.68;;;20.60;60.00;;;;;;5069410;28;20050;-68
2023/05/14 07:02:02;;;;;;;8.10;6.10;;;20.50;59.90;;;;;;5076207;28;20085;-68
2023/05/14 07:04:27;;;;;;;7.22;5.63;;;20.60;60.00;;;;;;5070502;28;20486;-68
2023/05/14 07:06:53;;;;;;;7.05;5.90;;;20.50;59.80;;;;;;5068072;28;20145;-68
2023/05/14 07:09:18;;;;;;;7.90;5.55;;;20.40;60.60;;;;;;5071006;28;20394;-68
2023/05/14 07:11:44;;;;;;;7.25;5.40;;;20.40;60.20;;;;;;5073249;28;20564;-69
2023/05/14 07:14:09;;;;;;;8.70;5.93;;;20.50;60.20;;;;;;5070262;28;20210;-68
2023/05/14 07:16:35;;;;;;;6.05;5.45;;;20.60;60.10;;;;;;5068506;28;20017;-69
2023/05/14 07:19:01;;;;;;;7.00;5.80;;;20.70;60.20;;;;;;5067164;28;20475;-68
2023/05/14 07:21:26;;;;;;;6.75;5.75;;;20.80;60.10;;;;;;5068904;28;20398;-70
2023/05/14 07:23:52;;;;;;;6.70;5.35;;;20.90;60.00;;;;;;5066199;28;20391;-68
2023/05/14 07:26:17;;;;;;;6.85;5.60;;;20.90;59.80;;;;;;5067940;28;20030;-68
2023/05/14 07:28:43;;;;;;;8.13;6.25;;;20.90;59.60;;;;;;5070476;28;20107;-68
2023/05/14 07:31:09;;;;;;;7.82;6.13;;;20.90;59.60;;;;;;5076730;28;20621;-70
2023/05/14 07:33:35;;;;;;;7.38;5.82;;;20.70;59.60;;;;;;5086436;28;20009;-68
2023/05/14 07:36:01;;;;;;;7.65;5.80;;;20.80;59.80;;;;;;5071841;28;20490;-69
2023/05/14 07:38:26;;;;;;;7.68;5.13;;;20.70;59.70;;;;;;5069544;28;20108;-68
2023/05/14 07:40:52;;;;;;;7.38;5.88;;;20.70;59.80;;;;;;5074714;28;20031;-68
2023/05/14 07:43:18;;;;;;;7.38;5.80;;;20.50;59.70;;;;;;5069894;28;20471;-68
2023/05/14 07:45:44;;;;;;;6.18;4.90;;;20.50;60.10;;;;;;5084809;28;20028;-72
2023/05/14 07:48:10;;;;;;;7.50;5.65;;;20.50;60.50;;;;;;5071646;28;20122;-71
2023/05/14 07:50:36;;;;;;;7.97;5.68;;;20.50;60.50;;;;;;5071079;28;20043;-68
2023/05/14 07:53:01;;;;;;;7.85;6.13;;;20.50;60.80;;;;;;5066944;28;20033;-68
2023/05/14 07:55:27;;;;;;;6.60;5.30;;;20.60;60.90;;;;;;5067236;28;20036;-68
2023/05/14 07:57:53;;;;;;;8.68;5.50;;;20.70;60.60;;;;;;5067738;28;20449;-68
2023/05/14 08:00:18;;;;;;;7.28;5.10;;;20.90;60.30;;;;;;5073756;28;20028;-69
2023/05/14 08:02:44;;;;;;;6.85;5.05;;;20.90;59.70;;;;;;5068070;28;20078;-70
2023/05/14 08:05:09;;;;;;;7.13;4.40;;;21.00;59.50;;;;;;5069674;28;20514;-68
2023/05/14 08:07:35;;;;;;;7.00;4.68;;;21.10;59.60;;;;;;5067314;28;20029;-68
2023/05/14 08:10:01;;;;;;;10.57;6.20;;;21.30;59.50;;;;;;5073173;28;20017;-68
2023/05/14 08:12:28;;;;;;;5.25;4.40;;;21.40;58.40;;;;;;5070560;28;20047;-69
2023/05/14 08:14:54;;;;;;;5.90;4.88;;;21.40;58.60;;;;;;5072863;28;20103;-68
2023/05/14 08:17:19;;;;;;;6.40;4.50;;;21.50;58.50;;;;;;5074001;28;20089;-68
2023/05/14 08:19:45;;;;;;;7.65;4.20;;;21.60;58.50;;;;;;5072122;28;20471;-70
2023/05/14 08:22:11;;;;;;;4.78;3.50;;;21.80;58.00;;;;;;5073448;28;20099;-70
2023/05/14 08:24:36;;;;;;;6.70;4.45;;;21.90;57.00;;;;;;5080987;28;20103;-70
2023/05/14 08:27:02;;;;;;;6.38;4.03;;;22.10;56.70;;;;;;5082532;28;20112;-68
2023/05/14 08:29:28;;;;;;;7.50;3.70;;;22.20;56.20;;;;;;5081104;28;20032;-69
2023/05/14 08:31:53;;;;;;;6.82;4.00;;;22.30;55.80;;;;;;5084475;28;20074;-70
2023/05/14 08:34:19;;;;;;;4.15;3.40;;;22.30;54.40;;;;;;5080527;28;20024;-69
2023/05/14 08:36:44;;;;;;;5.07;3.30;;;22.30;53.50;;;;;;5066006;28;20021;-68
2023/05/14 08:39:10;;;;;;;8.60;3.55;;;22.50;53.00;;;;;;5081797;28;20099;-68
2023/05/14 08:41:38;;;;;;;6.10;3.15;;;22.70;52.70;;;;;;5075477;28;20104;-70
2023/05/14 08:44:12;;;;;;;5.22;2.92;;;22.80;52.20;;;;;;5064505;28;20029;-69
2023/05/14 08:46:38;;;;;;;4.15;2.88;;;22.90;52.00;;;;;;5080930;28;20108;-68
2023/05/14 08:49:34;;;;;;;5.15;3.03;;;23.00;52.00;;;;;;5088565;28;20028;-69
2023/05/14 08:52:00;;;;;;;5.55;3.00;;;23.00;51.60;;;;;;5079756;28;20031;-70
2023/05/14 08:54:27;;;;;;;4.28;2.92;;;23.00;51.70;;;;;;5076688;28;20074;-69
2023/05/14 08:56:53;;;;;;;4.88;2.50;;;23.10;51.70;;;;;;5076751;28;20429;-69
2023/05/14 08:59:19;;;;;;;4.38;3.10;;;23.20;51.60;;;;;;5073961;28;20020;-68
2023/05/14 09:01:54;;;;;;;4.10;3.08;;;23.00;51.10;;;;;;5072677;28;20040;-68
2023/05/14 09:04:22;;;;;;;3.97;3.40;;;23.00;50.90;;;;;;5071166;28;20036;-69
2023/05/14 09:06:50;;;;;;;5.07;2.80;;;23.10;50.70;;;;;;5066694;28;20603;-69
2023/05/14 09:09:16;;;;;;;4.22;2.70;;;23.10;50.60;;;;;;5071272;28;20463;-70
2023/05/14 09:11:44;;;;;;;4.28;3.10;;;23.30;50.40;;;;;;5072380;28;20099;-68
2023/05/14 09:14:10;;;;;;;4.47;2.80;;;23.30;49.40;;;;;;5073673;28;20032;-70
2023/05/14 09:16:37;;;;;;;3.55;2.60;;;23.30;49.20;;;;;;5071757;28;20127;-70
2023/05/14 09:19:04;;;;;;;5.13;2.70;;;23.40;49.20;;;;;;5071694;28;20435;-69
2023/05/14 09:21:30;;;;;;;3.45;2.60;;;23.50;49.00;;;;;;5070306;28;20108;-69
2023/05/14 09:23:56;;;;;;;4.68;2.80;;;23.60;48.60;;;;;;5075812;28;20091;-68
2023/05/14 09:26:25;;;;;;;5.10;2.60;;;23.70;48.20;;;;;;5068848;28;20568;-68
2023/05/14 09:28:56;;;;;;;3.63;2.75;;;23.80;47.70;;;;;;5070824;28;20020;-68
2023/05/14 09:31:22;;;;;;;4.68;2.70;;;23.90;46.70;;;;;;5071721;28;20036;-68
2023/05/14 09:33:51;;;;;;;3.00;2.40;;;23.90;47.00;;;;;;5071921;28;20107;-69
2023/05/14 09:36:17;;;;;;;4.00;2.65;;;24.00;47.40;;;;;;5070698;28;20016;-70
2023/05/14 09:38:43;;;;;;;3.72;2.60;;;24.00;45.50;;;;;;5071209;28;20025;-69
2023/05/14 09:41:09;;;;;;;3.35;2.50;;;24.00;45.10;;;;;;5072234;28;20028;-70
2023/05/14 09:43:35;;;;;;;3.03;2.58;;;24.10;44.70;;;;;;5082289;28;20027;-70
2023/05/14 09:46:00;;;;;;;3.33;2.50;;;24.20;44.20;;;;;;5083233;28;20024;-68
2023/05/14 09:48:26;;;;;;;3.40;2.55;;;24.30;42.30;;;;;;5077495;28;20016;-68
2023/05/14 09:50:51;;;;;;;3.50;2.28;;;24.10;41.10;;;;;;5078076;28;20015;-72
2023/05/14 09:53:17;;;;;;;4.20;2.47;;;24.20;42.00;;;;;;5082035;28;20024;-68
2023/05/14 09:55:44;;;;;;;3.40;2.70;;;24.30;41.80;;;;;;5075500;28;20028;-67
2023/05/14 09:58:09;;;;;;;3.58;2.38;;;24.30;41.40;;;;;;5069667;28;20032;-70
2023/05/14 10:00:35;;;;;;;3.67;2.65;;;24.30;41.20;;;;;;5071788;28;20017;-66
2023/05/14 10:03:05;;;;;;;2.50;2.20;;;24.30;39.90;;;;;;5071075;28;20487;-68
2023/05/14 10:05:35;;;;;;;3.28;2.05;;;24.50;40.20;;;;;;5082404;28;20102;-67
2023/05/14 10:08:08;;;;;;;4.63;2.30;;;24.60;40.40;;;;;;5069263;28;20032;-67
2023/05/14 10:10:36;;;;;;;3.10;2.30;;;24.70;40.50;;;;;;5110725;27;20024;-69
2023/05/14 10:13:09;;;;;;;3.60;2.40;;;24.70;39.70;;;;;;5081574;28;20384;-67
2023/05/14 10:15:50;;;;;;;2.78;2.30;;;24.60;39.70;;;;;;5083815;28;20658;-66
2023/05/14 10:18:18;;;;;;;3.33;2.33;;;24.30;39.50;;;;;;5076809;28;20020;-69
2023/05/14 10:20:51;;;;;;;4.55;2.40;;;24.30;39.80;;;;;;5084413;28;20036;-67
2023/05/14 10:23:17;;;;;;;3.50;2.72;;;24.20;40.20;;;;;;5076205;28;20020;-68
2023/05/14 10:25:44;;;;;;;4.45;2.70;;;23.80;38.10;;;;;;5067939;28;20574;-68
2023/05/14 10:28:10;;;;;;;3.65;2.33;;;23.60;38.90;;;;;;5070105;28;20036;-67
2023/05/14 10:30:43;;;;;;;2.55;2.28;;;23.50;39.90;;;;;;5073981;28;20515;-67
2023/05/14 10:33:12;;;;;;;3.63;2.30;;;23.60;40.30;;;;;;5070214;28;20044;-67
2023/05/14 10:35:51;;;;;;;2.85;2.30;;;23.60;40.40;;;;;;5074048;28;20020;-67
2023/05/14 10:38:16;;;;;;;2.83;2.28;;;23.60;39.70;;;;;;5072518;28;20048;-67
2023/05/14 10:40:42;;;;;;;3.00;2.45;;;23.50;39.90;;;;;;5070764;28;20044;-67
2023/05/14 10:43:10;;;;;;;2.28;2.08;;;23.50;40.10;;;;;;5078861;28;20043;-68
2023/05/14 10:45:36;;;;;;;4.90;2.25;;;23.60;40.30;;;;;;5073616;28;20107;-67
2023/05/14 10:48:01;;;;;;;2.58;2.15;;;23.70;40.30;;;;;;5068892;28;20438;-67
2023/05/14 10:50:28;;;;;;;3.40;2.55;;;23.60;39.90;;;;;;5073988;28;20071;-67
2023/05/14 10:52:54;;;;;;;3.03;2.40;;;23.50;39.70;;;;;;5075379;28;20027;-68
2023/05/14 10:55:20;;;;;;;3.40;2.00;;;23.60;40.10;;;;;;5080030;28;20103;-68
2023/05/14 10:57:46;;;;;;;3.47;2.30;;;23.60;40.10;;;;;;5075667;28;20023;-69
2023/05/14 11:00:13;;;;;;;3.78;2.45;;;23.70;40.00;;;;;;5070276;28;20103;-68
2023/05/14 11:02:40;;;;;;;4.50;2.45;;;23.70;39.90;;;;;;5069717;28;20017;-68
2023/05/14 11:05:12;;;;;;;4.57;2.17;;;23.70;39.60;;;;;;5069595;28;20024;-67
2023/05/14 11:07:39;;;;;;;3.22;2.13;;;23.80;39.70;;;;;;5077614;28;20089;-68
2023/05/14 11:10:07;;;;;;;3.25;2.30;;;23.80;39.40;;;;;;5089924;28;20108;-68
2023/05/14 11:12:35;;;;;;;2.63;1.95;;;23.80;39.20;;;;;;5086437;28;20025;-69
2023/05/14 11:15:02;;;;;;;2.85;2.50;;;23.80;39.30;;;;;;5078544;28;20013;-68
2023/05/14 11:17:29;;;;;;;3.60;2.10;;;23.80;39.70;;;;;;5050087;28;20059;-70
2023/05/14 11:19:55;;;;;;;3.10;2.40;;;23.80;40.10;;;;;;5090074;28;20119;-67
2023/05/14 11:22:21;;;;;;;4.07;2.35;;;23.70;39.90;;;;;;5083558;28;20028;-67
2023/05/14 11:24:47;;;;;;;4.00;2.20;;;23.60;40.00;;;;;;5069752;28;20510;-69
2023/05/14 11:27:13;;;;;;;2.75;2.13;;;23.60;40.10;;;;;;5085456;28;20100;-68
2023/05/14 11:29:46;;;;;;;2.28;1.95;;;23.70;39.90;;;;;;5069949;28;20055;-70
2023/05/14 11:32:12;;;;;;;2.33;1.95;;;23.80;39.20;;;;;;5076434;28;20762;-68
2023/05/14 11:34:38;;;;;;;3.17;1.90;;;23.80;38.80;;;;;;5075197;28;20054;-67
2023/05/14 11:37:08;;;;;;;3.25;2.17;;;23.90;38.60;;;;;;5070228;28;20336;-70
2023/05/14 11:39:36;;;;;;;4.32;2.30;;;24.00;38.60;;;;;;5069740;28;20040;-67
2023/05/14 11:42:03;;;;;;;4.68;2.40;;;24.10;38.70;;;;;;5069244;28;20020;-67
2023/05/14 11:44:29;;;;;;;2.80;2.20;;;24.10;37.60;;;;;;5083928;28;20166;-68
2023/05/14 11:46:56;;;;;;;4.00;2.50;;;24.30;37.80;;;;;;5081030;28;20745;-69
2023/05/14 11:49:25;;;;;;;5.70;2.88;;;24.60;37.80;;;;;;5073631;28;20104;-68
2023/05/14 11:51:58;;;;;;;3.53;2.38;;;24.50;35.50;;;;;;5073140;28;20479;-70
2023/05/14 11:54:28;;;;;;;3.35;2.35;;;24.50;36.60;;;;;;5073408;28;20048;-68
2023/05/14 11:56:55;;;;;;;3.90;2.40;;;24.50;36.40;;;;;;5081228;28;20016;-68
2023/05/14 11:59:24;;;;;;;2.80;2.10;;;24.50;36.30;;;;;;5092410;28;20020;-68
2023/05/14 12:01:51;;;;;;;4.03;2.25;;;24.50;35.90;;;;;;5086117;28;20035;-69
2023/05/14 12:04:21;;;;;;;2.53;2.20;;;24.50;36.30;;;;;;5073691;28;20181;-67
2023/05/14 12:06:50;;;;;;;3.13;2.20;;;24.50;36.20;;;;;;5073429;28;20028;-68
2023/05/14 12:09:19;;;;;;;2.42;2.13;;;24.50;36.00;;;;;;5065080;28;20021;-71
2023/05/14 12:11:46;;;;;;;3.40;2.10;;;24.60;35.70;;;;;;5073108;28;20502;-68
2023/05/14 12:14:35;;;;;;;2.28;1.92;;;24.80;35.70;;;;;;5073386;28;20085;-72
2023/05/14 12:17:01;;;;;;;2.80;2.10;;;25.00;35.20;;;;;;5073714;28;20086;-68
2023/05/14 12:19:28;;;;;;;2.50;2.30;;;25.00;34.50;;;;;;5085192;28;20020;-68
2023/05/14 12:21:54;;;;;;;2.17;1.90;;;25.20;34.60;;;;;;5093825;28;20051;-71
2023/05/14 12:24:20;;;;;;;2.78;1.98;;;25.40;34.50;;;;;;5093599;28;20051;-67
2023/05/14 12:26:50;;;;;;;2.58;2.20;;;25.50;34.20;;;;;;5066337;28;20036;-68
2023/05/14 12:29:16;;;;;;;4.65;2.60;;;25.30;33.80;;;;;;5080813;28;20097;-67
2023/05/14 12:31:47;;;;;;;4.10;2.17;;;25.20;33.40;;;;;;5089060;28;20020;-68
2023/05/14 12:34:12;;;;;;;2.42;2.08;;;25.20;33.30;;;;;;5065727;28;20090;-70
2023/05/14 12:36:38;;;;;;;4.10;3.40;;;25.30;33.70;;;;;;5070418;28;20028;-67
2023/05/14 12:39:04;;;;;;;6.45;4.10;;;25.30;34.30;;;;;;5071965;28;20098;-67
2023/05/14 12:41:30;;;;;;;4.70;2.50;;;25.30;34.40;;;;;;5072373;28;20028;-68